Flight Track Log - Related Links

Times and Time Zones

All times are in EDT time to prevent confusion due to time zone crossing. See the FFT532 flight status page for this flight to view local times or setup timezone preferences in your user account.

Time Position Orientation Groundspeed Altitude Reporting Facility
EDT Latitude Longitude Course Direction KTS MPH feet Rate Location/Type
Mon 10:36:57 AM 39.8833 -104.6000 90° East 168 193 6,400  Level Denver TRACON
Mon 10:37:51 AM 39.8833 -104.5333 90° East 224 258 7,400 1,789 Climbing Denver TRACON
Mon 10:38:51 AM 39.8667 -104.4333 102° East 288 331 9,800 1,947 Climbing Denver TRACON
Mon 10:39:45 AM 39.8667 -104.3333 90° East 323 372 11,100 1,835 Climbing Denver TRACON
Mon 10:40:16 AM 39.8736 -104.2669 82° East 335 386 12,400 2,581 Climbing Denver Center
Mon 10:41:18 AM 39.8728 -104.1294 90° East 355 409 15,100 2,419 Climbing Denver Center
Mon 10:42:20 AM 39.8714 -103.9953 91° East 369 425 17,400 2,032 Climbing Denver Center
Mon 10:43:22 AM 39.8750 -103.8439 88° East 386 444 19,300 1,742 Climbing Denver Center
Mon 10:44:24 AM 39.8856 -103.7133 84° East 399 459 21,000 1,645 Climbing Denver Center
Mon 10:45:26 AM 39.9022 -103.5683 81° East 404 465 22,700 968 Climbing Denver Center
Mon 10:46:28 AM 39.9247 -103.3786 81° East 436 502 23,000 145 Climbing Denver Center
Mon 10:47:30 AM 39.9425 -103.2108 82° East 461 531 23,000 1,016 Level Denver Center
Mon 10:48:32 AM 39.9608 -103.0458 82° East 463 533 25,100 2,016 Climbing Denver Center
Mon 10:49:35 AM 39.9786 -102.8903 81° East 442 509 27,200 1,584 Climbing Denver Center
Mon 10:50:37 AM 39.9942 -102.7319 83° East 440 506 28,400 1,235 Climbing Denver Center
Mon 10:51:51 AM 40.0181 -102.5100 82° East 459 528 30,000 1,103 Climbing Denver Center
Mon 10:52:53 AM 40.0319 -102.3767 82° East 465 535 30,900 1,161 Climbing Denver Center
Mon 10:53:55 AM 40.0544 -102.1619 82° East 469 540 32,400 1,355 Climbing Denver Center
Mon 10:54:57 AM 40.0706 -101.9992 83° East 472 543 33,700 1,103 Climbing Denver Center
Mon 10:56:11 AM 40.0900 -101.8089 82° East 474 545 34,900 1,051 Climbing Denver Center
Mon 10:57:14 AM 40.1111 -101.5936 83° East 472 543 36,100 313 Climbing Denver Center
Mon 11:02:54 AM 40.1990 -100.6520 83° East 471 542 37,000 144 Climbing FlightAware ADS-B
Mon 11:03:30 AM 40.2080 -100.5660 82° East 471 542 37,000  Level FlightAware ADS-B
Mon 11:04:06 AM 40.2160 -100.4790 83° East 471 542 37,000  Level FlightAware ADS-B
Mon 11:04:43 AM 40.2240 -100.3900 83° East 471 542 37,000  Level FlightAware ADS-B
Mon 11:05:20 AM 40.2320 -100.3010 83° East 471 542 37,000  Level FlightAware ADS-B
Mon 11:05:57 AM 40.2410 -100.2120 82° East 471 542 37,000  Level FlightAware ADS-B
Mon 11:06:33 AM 40.2490 -100.1250 83° East 471 542 37,000  Level FlightAware ADS-B
Mon 11:07:09 AM 40.2570 -100.0380 83° East 471 542 37,000  Level FlightAware ADS-B
Mon 11:07:43 AM 40.2650 -99.9560 83° East 471 542 37,000  Level FlightAware ADS-B
Mon 11:08:19 AM 40.2730 -99.8700 83° East 471 542 37,000  Level FlightAware ADS-B
Mon 11:08:55 AM 40.2810 -99.7830 83° East 471 542 37,000  Level FlightAware ADS-B
Mon 11:09:34 AM 40.2900 -99.6890 83° East 471 542 37,000  Level FlightAware ADS-B
Mon 11:10:10 AM 40.2980 -99.6020 83° East 471 542 37,000  Level FlightAware ADS-B
Mon 11:10:46 AM 40.3060 -99.5150 83° East 471 542 37,000  Level FlightAware ADS-B
Mon 11:11:23 AM 40.3140 -99.4260 83° East 471 542 37,000  Level FlightAware ADS-B
Mon 11:17:24 AM 40.2230 -98.1620 95° East 472 543 37,000  Level FlightAware ADS-B
Mon 11:18:06 AM 40.2220 -98.0390 91° East 474 545 37,000  Level FlightAware ADS-B
Mon 11:18:44 AM 40.2220 -97.9360 90° East 476 548 37,000  Level FlightAware ADS-B
Mon 11:19:18 AM 40.2210 -97.8340 91° East 477 549 37,000  Level FlightAware ADS-B
Mon 11:19:53 AM 40.2200 -97.7370 91° East 478 550 37,000  Level FlightAware ADS-B
Mon 11:20:26 AM 40.2200 -97.6410 90° East 479 551 37,000  Level FlightAware ADS-B
Mon 11:21:21 AM 40.2190 -97.4940 90° East 478 550 37,000  Level FlightAware ADS-B
Mon 11:21:59 AM 40.2180 -97.3710 91° East 479 551 37,000  Level FlightAware ADS-B
Mon 11:22:31 AM 40.2170 -97.2840 91° East 479 551 37,000  Level FlightAware ADS-B
Mon 11:23:08 AM 40.2240 -97.1730 85° East 481 554 37,000  Level FlightAware ADS-B
Mon 11:23:45 AM 40.2390 -97.0710 79° East 480 552 37,000  Level FlightAware ADS-B
Mon 11:24:17 AM 40.2540 -96.9740 79° East 480 552 37,000  Level FlightAware ADS-B
Mon 11:24:53 AM 40.2700 -96.8730 78° East 480 552 37,000  Level FlightAware ADS-B
Mon 11:25:30 AM 40.2860 -96.7680 79° East 481 554 37,000  Level FlightAware ADS-B
Mon 11:26:00 AM 40.3000 -96.6810 78° East 481 554 37,000  Level FlightAware ADS-B
Mon 11:26:38 AM 40.3160 -96.5740 79° East 482 555 37,000  Level FlightAware ADS-B
Mon 11:27:09 AM 40.3300 -96.4850 78° East 483 556 37,000  Level FlightAware ADS-B
Mon 11:27:51 AM 40.3480 -96.3650 79° East 483 556 37,000  Level FlightAware ADS-B
Mon 11:28:23 AM 40.3620 -96.2730 79° East 484 557 37,000  Level FlightAware ADS-B
Mon 11:28:58 AM 40.3770 -96.1720 79° East 484 557 37,000  Level FlightAware ADS-B
Mon 11:29:34 AM 40.3920 -96.0670 79° East 484 557 37,000  Level FlightAware ADS-B
Mon 11:30:10 AM 40.4070 -95.9680 79° East 483 556 37,000  Level FlightAware ADS-B
Mon 11:30:47 AM 40.4230 -95.8610 79° East 483 556 37,000  Level FlightAware ADS-B
Mon 11:31:21 AM 40.4370 -95.7610 80° East 484 557 37,000  Level FlightAware ADS-B
Mon 11:31:54 AM 40.4510 -95.6660 79° East 484 557 37,000  Level FlightAware ADS-B
Mon 11:32:30 AM 40.4660 -95.5620 79° East 484 557 37,000  Level FlightAware ADS-B
Mon 11:33:05 AM 40.4810 -95.4600 79° East 485 558 37,000  Level FlightAware ADS-B
Mon 11:33:37 AM 40.4940 -95.3690 79° East 485 558 37,000  Level FlightAware ADS-B
Mon 11:34:12 AM 40.5080 -95.2670 80° East 485 558 37,000  Level FlightAware ADS-B
Mon 11:34:51 AM 40.5230 -95.1560 80° East 484 557 37,000  Level FlightAware ADS-B
Mon 11:35:24 AM 40.5370 -95.0600 79° East 484 557 37,000  Level FlightAware ADS-B
Mon 11:36:07 AM 40.5540 -94.9350 80° East 483 556 37,000  Level FlightAware ADS-B
Mon 11:36:38 AM 40.5660 -94.8480 80° East 483 556 37,000  Level FlightAware ADS-B
Mon 11:37:16 AM 40.5800 -94.7420 80° East 482 555 37,000  Level FlightAware ADS-B
Mon 11:37:48 AM 40.5930 -94.6470 80° East 482 555 37,000  Level FlightAware ADS-B
Mon 11:38:28 AM 40.6090 -94.5320 80° East 481 554 37,000  Level FlightAware ADS-B
Mon 11:39:01 AM 40.6220 -94.4340 80° East 481 554 37,000  Level FlightAware ADS-B
Mon 11:39:38 AM 40.6360 -94.3270 80° East 481 554 37,000  Level FlightAware ADS-B
Mon 11:40:11 AM 40.6480 -94.2330 80° East 481 554 37,000  Level FlightAware ADS-B
Mon 11:40:48 AM 40.6620 -94.1280 80° East 479 551 37,000  Level FlightAware ADS-B
Mon 11:41:23 AM 40.6760 -94.0240 80° East 480 552 37,000  Level FlightAware ADS-B
Mon 11:42:02 AM 40.6890 -93.9260 80° East 480 552 37,000  Level FlightAware ADS-B
Mon 11:42:39 AM 40.7010 -93.8350 80° East 480 552 37,000 88 Level FlightAware ADS-B
Mon 11:43:10 AM 40.7150 -93.7180 81° East 478 550 37,100  Climbing FlightAware ADS-B
Mon 11:43:49 AM 40.7270 -93.6200 81° East 477 549 37,000 -82 Descending FlightAware ADS-B
Mon 11:44:23 AM 40.7410 -93.5080 81° East 475 547 37,000 -273 Level FlightAware ADS-B
Mon 11:44:55 AM 40.7510 -93.4250 81° East 477 549 36,700 -716 Descending FlightAware ADS-B
Mon 11:45:30 AM 40.7640 -93.3220 81° East 482 555 36,200 -986 Descending FlightAware ADS-B
Mon 11:46:08 AM 40.7780 -93.2070 81° East 485 558 35,500 -1,040 Descending FlightAware ADS-B
Mon 11:46:45 AM 40.7910 -93.0980 81° East 485 558 34,900 -1,000 Descending FlightAware ADS-B
Mon 11:47:20 AM 40.8040 -92.9960 80° East 489 563 34,300 -971 Descending FlightAware ADS-B
Mon 11:47:53 AM 40.8150 -92.8990 81° East 493 567 33,800 -957 Descending FlightAware ADS-B
Mon 11:48:29 AM 40.8280 -92.7910 81° East 491 565 33,200 -1,000 Descending FlightAware ADS-B
Mon 11:49:05 AM 40.8400 -92.6860 81° East 491 565 32,600 -973 Descending FlightAware ADS-B
Mon 11:49:43 AM 40.8530 -92.5760 81° East 490 564 32,000 -628 Descending FlightAware ADS-B
Mon 11:50:31 AM 40.8680 -92.4460 81° East 492 566 31,700 -714 Descending FlightAware ADS-B
Mon 11:51:07 AM 40.8820 -92.3290 81° East 490 564 31,000 -512 Descending FlightAware ADS-B
Mon 11:51:53 AM 40.8970 -92.1920 82° East 489 563 31,000  Level FlightAware ADS-B
Mon 11:52:27 AM 40.9080 -92.0900 82° East 488 562 31,000  Level FlightAware ADS-B
Mon 11:52:55 AM 40.9170 -92.0130 81° East 488 562 31,000  Level FlightAware ADS-B
Mon 11:53:37 AM 40.9310 -91.8840 82° East 487 560 31,000  Level FlightAware ADS-B
Mon 11:54:11 AM 40.9430 -91.7820 81° East 486 559 31,000  Level FlightAware ADS-B
Mon 11:54:45 AM 40.9530 -91.6840 82° East 486 559 31,000  Level FlightAware ADS-B
Mon 11:55:15 AM 40.9630 -91.5960 81° East 486 559 31,000  Level FlightAware ADS-B
Mon 11:55:56 AM 40.9760 -91.4740 82° East 487 560 31,000  Level FlightAware ADS-B
Mon 11:56:33 AM 40.9870 -91.3670 82° East 487 560 31,000 -154 Level FlightAware ADS-B
Mon 11:57:14 AM 41.0000 -91.2460 82° East 487 560 30,800 -1,026 Descending FlightAware ADS-B
Mon 11:57:49 AM 41.0100 -91.1440 83° East 480 552 29,700 -1,970 Descending FlightAware ADS-B
Mon 11:58:21 AM 41.0200 -91.0520 82° East 464 534 28,600 -2,229 Descending FlightAware ADS-B
Mon 11:58:59 AM 41.0300 -90.9470 83° East 452 520 27,100 -2,250 Descending FlightAware ADS-B
Mon 11:59:33 AM 41.0390 -90.8610 82° East 441 507 25,900 -2,167 Descending FlightAware ADS-B
Mon 12:00:11 PM 41.0500 -90.7540 82° East 427 491 24,500 -1,714 Descending FlightAware ADS-B
Mon 12:00:43 PM 41.0580 -90.6700 83° East 422 486 23,900 -971 Descending FlightAware ADS-B
Mon 12:01:19 PM 41.0670 -90.5790 82° East 420 483 23,400 -771 Descending FlightAware ADS-B
Mon 12:01:53 PM 41.0750 -90.4930 83° East 415 478 23,000 -706 Descending FlightAware ADS-B
Mon 12:02:27 PM 41.0840 -90.4080 82° East 412 474 22,600 -676 Descending FlightAware ADS-B
Mon 12:03:04 PM 41.0930 -90.3160 83° East 409 471 22,200 -658 Descending FlightAware ADS-B
Mon 12:03:40 PM 41.1010 -90.2290 83° East 405 466 21,800 -696 Descending FlightAware ADS-B
Mon 12:04:13 PM 41.1090 -90.1450 83° East 402 463 21,400 -716 Descending FlightAware ADS-B
Mon 12:04:47 PM 41.1170 -90.0630 83° East 401 461 21,000 -696 Descending FlightAware ADS-B
Mon 12:05:22 PM 41.1240 -89.9800 84° East 399 459 20,600 -1,397 Descending FlightAware ADS-B
Mon 12:06:00 PM 41.1330 -89.8890 82° East 394 453 19,300 -2,314 Descending FlightAware ADS-B
Mon 12:06:32 PM 41.1400 -89.8090 83° East 390 449 17,900 -2,486 Descending FlightAware ADS-B
Mon 12:07:10 PM 41.1480 -89.7260 83° East 386 444 16,400 -2,486 Descending FlightAware ADS-B
Mon 12:07:42 PM 41.1540 -89.6500 84° East 387 445 15,000 -1,886 Descending FlightAware ADS-B
Mon 12:08:20 PM 41.1620 -89.5640 83° East 371 427 14,200 -917 Descending FlightAware ADS-B
Mon 12:08:54 PM 41.1670 -89.4870 85° East 362 417 13,900 -686 Descending FlightAware ADS-B
Mon 12:09:30 PM 41.1730 -89.4060 84° East 363 418 13,400 -771 Descending FlightAware ADS-B
Mon 12:10:04 PM 41.1780 -89.3290 85° East 360 414 13,000 -686 Descending FlightAware ADS-B
Mon 12:10:40 PM 41.1830 -89.2520 85° East 358 412 12,600 -686 Descending FlightAware ADS-B
Mon 12:11:14 PM 41.1880 -89.1780 85° East 358 412 12,200 -553 Descending FlightAware ADS-B
Mon 12:11:56 PM 41.1940 -89.0860 85° East 359 413 11,900 -462 Descending FlightAware ADS-B
Mon 12:12:32 PM 41.1990 -89.0080 85° East 356 410 11,600 -529 Descending FlightAware ADS-B
Mon 12:13:04 PM 41.2030 -88.9360 86° East 350 403 11,300 -514 Descending FlightAware ADS-B
Mon 12:13:42 PM 41.2080 -88.8570 85° East 349 402 11,000 -486 Descending FlightAware ADS-B
Mon 12:14:18 PM 41.2130 -88.7790 85° East 347 399 10,700 -441 Descending FlightAware ADS-B
Mon 12:14:50 PM 41.2170 -88.7130 85° East 344 396 10,500 -441 Descending FlightAware ADS-B
Mon 12:15:26 PM 41.2220 -88.6390 85° East 321 369 10,200 -536 Descending FlightAware ADS-B
Mon 12:15:46 PM 41.2240 -88.6020 86° East 308 354 10,000 -955 Descending FlightAware ADS-B
Mon 12:16:10 PM 41.2270 -88.5540 85° East 293 337 9,500 -1,091 Descending FlightAware ADS-B
Mon 12:16:30 PM 41.2310 -88.5230 80° East 284 327 9,200 -1,313 Descending FlightAware ADS-B
Mon 12:16:42 PM 41.2400 -88.5030 59° Northeast 277 319 8,800 -1,714 Descending FlightAware ADS-B
Mon 12:16:51 PM 41.2470 -88.4940 44° Northeast 274 315 8,600 -1,412 Descending FlightAware ADS-B
Mon 12:16:59 PM 41.2570 -88.4870 28° Northeast 273 314 8,400 -1,500 Descending FlightAware ADS-B
Mon 12:17:19 PM 41.2800 -88.4730 25° Northeast 272 313 7,900 -1,500 Descending FlightAware ADS-B
Mon 12:17:39 PM 41.3020 -88.4560 30° Northeast 270 311 7,400 -1,286 Descending FlightAware ADS-B
Mon 12:17:47 PM 41.3080 -88.4460 51° Northeast 271 312 7,300 -1,071 Descending FlightAware ADS-B
Mon 12:18:07 PM 41.3220 -88.4160 58° Northeast 271 312 6,900 -1,050 Descending FlightAware ADS-B
Mon 12:18:27 PM 41.3330 -88.3900 61° Northeast 267 307 6,600 -818 Descending FlightAware ADS-B
Mon 12:18:51 PM 41.3480 -88.3590 57° Northeast 262 302 6,300 -750 Descending FlightAware ADS-B
Mon 12:19:07 PM 41.3590 -88.3350 59° Northeast 261 300 6,100 -714 Descending FlightAware ADS-B
Mon 12:19:33 PM 41.3760 -88.2980 59° Northeast 262 302 5,800 -652 Descending FlightAware ADS-B
Mon 12:19:53 PM 41.3880 -88.2700 60° Northeast 262 302 5,600 -300 Descending FlightAware ADS-B
Mon 12:20:13 PM 41.4000 -88.2430 59° Northeast 261 300 5,600  Level FlightAware ADS-B
Mon 12:20:37 PM 41.4170 -88.2150 51° Northeast 262 302 5,600 -167 Level FlightAware ADS-B
Mon 12:20:49 PM 41.4280 -88.2010 44° Northeast 263 303 5,500 -968 Descending FlightAware ADS-B
Mon 12:21:08 PM 41.4460 -88.1790 42° Northeast 260 299 5,100 -900 Descending FlightAware ADS-B
Mon 12:21:29 PM 41.4630 -88.1570 44° Northeast 258 297 4,900 -667 Descending FlightAware ADS-B
Mon 12:21:53 PM 41.4850 -88.1280 45° Northeast 254 292 4,600 -714 Descending FlightAware ADS-B
Mon 12:22:11 PM 41.5000 -88.1100 42° Northeast 251 289 4,400 -600 Descending FlightAware ADS-B
Mon 12:22:33 PM 41.5180 -88.0880 42° Northeast 250 288 4,200 -545 Descending FlightAware ADS-B
Mon 12:22:55 PM 41.5370 -88.0640 43° Northeast 248 285 4,000 -545 Descending FlightAware ADS-B
Mon 12:23:17 PM 41.5560 -88.0400 43° Northeast 246 283 3,800 -558 Descending FlightAware ADS-B
Mon 12:23:38 PM 41.5720 -88.0200 43° Northeast 247 284 3,600 -300 Descending FlightAware ADS-B
Mon 12:23:57 PM 41.5880 -88.0010 42° Northeast 247 284 3,600  Level FlightAware ADS-B
Mon 12:24:19 PM 41.6080 -87.9760 43° Northeast 236 272 3,600  Level FlightAware ADS-B
Mon 12:24:39 PM 41.6230 -87.9560 45° Northeast 227 261 3,600  Level FlightAware ADS-B
Mon 12:25:03 PM 41.6400 -87.9340 44° Northeast 227 261 3,600  Level FlightAware ADS-B
Mon 12:25:13 PM 41.6470 -87.9260 40° Northeast 226 260 3,600 -375 Level FlightAware ADS-B
Mon 12:25:35 PM 41.6640 -87.9040 44° Northeast 212 244 3,400 -714 Descending FlightAware ADS-B
Mon 12:25:55 PM 41.6780 -87.8870 42° Northeast 206 237 3,100 -1,091 Descending FlightAware ADS-B
Mon 12:26:19 PM 41.6940 -87.8670 43° Northeast 204 235 2,600 -1,227 Descending FlightAware ADS-B
Mon 12:26:39 PM 41.7070 -87.8500 44° Northeast 199 229 2,200 -1,200 Descending FlightAware ADS-B
Mon 12:26:59 PM 41.7200 -87.8340 43° Northeast 181 208 1,800 -955 Descending FlightAware ADS-B
Mon 12:27:23 PM 41.7350 -87.8150 43° Northeast 154 177 1,500 -818 Descending FlightAware ADS-B
Mon 12:27:43 PM 41.7440 -87.8030 45° Northeast 127 146 1,200 -750 Descending FlightAware ADS-B
Mon 12:28:03 PM 41.7510 -87.7950 40° Northeast 114 131 1,000 -632 Descending FlightAware ADS-B
Mon 12:28:21 PM 41.7590 -87.7840 46° Northeast 117 135 800 -563 Descending FlightAware ADS-B
Mon 12:28:35 PM 41.7650 -87.7770 41° Northeast 116 133 700 -150 Descending FlightAware ADS-B
Mon 12:29:01 PM 41.7740 -87.7660 42° Northeast 116 133 700 171 Level FlightAware ADS-B
Mon 12:29:45 PM 41.7892 -87.7478 42° Northeast 135 155 900 273 Climbing Chicago Center

Login

Don't have an account? Register now (free) for customized features, flight alerts, and more!